sensor_id;sensor_type;location;lat;lon;timestamp;temperature;humidity
47546;DHT22;50104;52.002;4.688;2023-02-28T00:03:35;2.90;77.30
47546;DHT22;50104;52.002;4.688;2023-02-28T00:08:37;2.80;77.30
47546;DHT22;50104;52.002;4.688;2023-02-28T00:13:43;2.80;77.30
47546;DHT22;50104;52.002;4.688;2023-02-28T00:18:47;2.80;77.60
47546;DHT22;50104;52.002;4.688;2023-02-28T00:23:48;2.80;77.90
47546;DHT22;50104;52.002;4.688;2023-02-28T00:28:49;2.80;78.10
47546;DHT22;50104;52.002;4.688;2023-02-28T00:33:53;2.80;78.00
47546;DHT22;50104;52.002;4.688;2023-02-28T00:38:54;2.80;78.20
47546;DHT22;50104;52.002;4.688;2023-02-28T00:43:55;2.90;78.20
47546;DHT22;50104;52.002;4.688;2023-02-28T00:48:56;2.90;78.20
47546;DHT22;50104;52.002;4.688;2023-02-28T00:53:57;3.00;78.20
47546;DHT22;50104;52.002;4.688;2023-02-28T00:58:57;3.10;78.10
47546;DHT22;50104;52.002;4.688;2023-02-28T01:03:58;3.10;77.90
47546;DHT22;50104;52.002;4.688;2023-02-28T01:09:00;3.20;77.80
47546;DHT22;50104;52.002;4.688;2023-02-28T01:14:01;3.20;78.00
47546;DHT22;50104;52.002;4.688;2023-02-28T01:19:02;3.30;78.10
47546;DHT22;50104;52.002;4.688;2023-02-28T01:24:04;3.30;78.10
47546;DHT22;50104;52.002;4.688;2023-02-28T01:29:06;3.40;78.10
47546;DHT22;50104;52.002;4.688;2023-02-28T01:34:07;3.40;78.20
47546;DHT22;50104;52.002;4.688;2023-02-28T01:39:07;3.50;78.10
47546;DHT22;50104;52.002;4.688;2023-02-28T01:50:01;3.60;78.20
47546;DHT22;50104;52.002;4.688;2023-02-28T01:55:06;3.70;78.10
47546;DHT22;50104;52.002;4.688;2023-02-28T02:00:09;3.70;78.60
47546;DHT22;50104;52.002;4.688;2023-02-28T02:05:18;3.70;78.40
47546;DHT22;50104;52.002;4.688;2023-02-28T02:10:36;3.80;78.40
47546;DHT22;50104;52.002;4.688;2023-02-28T02:26:21;3.90;78.40
47546;DHT22;50104;52.002;4.688;2023-02-28T02:43:07;4.00;78.20
47546;DHT22;50104;52.002;4.688;2023-02-28T02:48:31;4.00;78.40
47546;DHT22;50104;52.002;4.688;2023-02-28T02:53:38;4.00;78.40
47546;DHT22;50104;52.002;4.688;2023-02-28T02:58:44;4.10;78.50
47546;DHT22;50104;52.002;4.688;2023-02-28T03:03:45;4.10;78.30
47546;DHT22;50104;52.002;4.688;2023-02-28T03:08:46;4.10;78.30
47546;DHT22;50104;52.002;4.688;2023-02-28T03:29:50;4.20;78.10
47546;DHT22;50104;52.002;4.688;2023-02-28T03:35:23;4.20;78.30
47546;DHT22;50104;52.002;4.688;2023-02-28T03:40:30;4.20;78.10
47546;DHT22;50104;52.002;4.688;2023-02-28T03:45:35;4.30;78.00
47546;DHT22;50104;52.002;4.688;2023-02-28T03:50:41;4.30;78.20
47546;DHT22;50104;52.002;4.688;2023-02-28T03:55:45;4.30;78.50
47546;DHT22;50104;52.002;4.688;2023-02-28T04:01:00;4.30;78.30
47546;DHT22;50104;52.002;4.688;2023-02-28T04:06:15;4.30;78.20
47546;DHT22;50104;52.002;4.688;2023-02-28T04:11:35;4.30;78.20
47546;DHT22;50104;52.002;4.688;2023-02-28T04:16:40;4.40;78.20
47546;DHT22;50104;52.002;4.688;2023-02-28T04:21:44;4.40;78.20
47546;DHT22;50104;52.002;4.688;2023-02-28T04:26:48;4.40;78.20
47546;DHT22;50104;52.002;4.688;2023-02-28T04:31:55;4.40;78.10
47546;DHT22;50104;52.002;4.688;2023-02-28T04:36:59;4.40;78.20
47546;DHT22;50104;52.002;4.688;2023-02-28T04:42:01;4.40;78.20
47546;DHT22;50104;52.002;4.688;2023-02-28T04:47:01;4.40;78.30
47546;DHT22;50104;52.002;4.688;2023-02-28T04:52:02;4.40;78.30
47546;DHT22;50104;52.002;4.688;2023-02-28T04:57:05;4.40;78.20
47546;DHT22;50104;52.002;4.688;2023-02-28T05:02:06;4.40;78.30
47546;DHT22;50104;52.002;4.688;2023-02-28T05:07:07;4.50;78.40
47546;DHT22;50104;52.002;4.688;2023-02-28T05:12:09;4.50;78.30
47546;DHT22;50104;52.002;4.688;2023-02-28T05:17:10;4.50;78.30
47546;DHT22;50104;52.002;4.688;2023-02-28T05:22:14;4.50;78.30
47546;DHT22;50104;52.002;4.688;2023-02-28T05:27:17;4.50;78.40
47546;DHT22;50104;52.002;4.688;2023-02-28T05:32:18;4.50;78.30
47546;DHT22;50104;52.002;4.688;2023-02-28T05:37:19;4.50;78.30
47546;DHT22;50104;52.002;4.688;2023-02-28T05:42:20;4.50;78.30
47546;DHT22;50104;52.002;4.688;2023-02-28T05:47:20;4.50;78.30
47546;DHT22;50104;52.002;4.688;2023-02-28T05:52:22;4.50;78.40
47546;DHT22;50104;52.002;4.688;2023-02-28T05:57:23;4.50;78.40
47546;DHT22;50104;52.002;4.688;2023-02-28T06:02:27;4.50;78.60
47546;DHT22;50104;52.002;4.688;2023-02-28T06:07:28;4.50;78.60
47546;DHT22;50104;52.002;4.688;2023-02-28T06:12:29;4.40;78.70
47546;DHT22;50104;52.002;4.688;2023-02-28T06:17:30;4.40;78.60
47546;DHT22;50104;52.002;4.688;2023-02-28T06:22:31;4.40;78.70
47546;DHT22;50104;52.002;4.688;2023-02-28T06:27:33;4.40;78.50
47546;DHT22;50104;52.002;4.688;2023-02-28T06:32:34;4.30;78.40
47546;DHT22;50104;52.002;4.688;2023-02-28T06:37:36;4.30;78.40
47546;DHT22;50104;52.002;4.688;2023-02-28T06:42:37;4.20;78.50
47546;DHT22;50104;52.002;4.688;2023-02-28T06:47:40;4.20;78.60
47546;DHT22;50104;52.002;4.688;2023-02-28T06:52:42;4.20;78.80
47546;DHT22;50104;52.002;4.688;2023-02-28T06:57:42;4.10;78.80
47546;DHT22;50104;52.002;4.688;2023-02-28T07:02:43;4.10;78.70
47546;DHT22;50104;52.002;4.688;2023-02-28T07:07:44;4.10;79.00
47546;DHT22;50104;52.002;4.688;2023-02-28T07:12:47;4.00;79.20
47546;DHT22;50104;52.002;4.688;2023-02-28T07:17:48;4.00;79.30
47546;DHT22;50104;52.002;4.688;2023-02-28T07:22:49;4.00;79.40
47546;DHT22;50104;52.002;4.688;2023-02-28T07:27:56;3.90;79.20
47546;DHT22;50104;52.002;4.688;2023-02-28T07:32:59;3.90;79.50
47546;DHT22;50104;52.002;4.688;2023-02-28T07:38:00;3.80;79.50
47546;DHT22;50104;52.002;4.688;2023-02-28T07:43:03;3.80;79.60
47546;DHT22;50104;52.002;4.688;2023-02-28T07:48:05;3.80;79.60
47546;DHT22;50104;52.002;4.688;2023-02-28T07:53:06;3.80;79.60
47546;DHT22;50104;52.002;4.688;2023-02-28T07:58:07;3.70;79.80
47546;DHT22;50104;52.002;4.688;2023-02-28T08:03:12;3.70;79.90
47546;DHT22;50104;52.002;4.688;2023-02-28T08:08:14;3.70;79.90
47546;DHT22;50104;52.002;4.688;2023-02-28T08:13:15;3.70;79.90
47546;DHT22;50104;52.002;4.688;2023-02-28T08:18:16;3.70;80.10
47546;DHT22;50104;52.002;4.688;2023-02-28T08:23:17;3.70;80.10
47546;DHT22;50104;52.002;4.688;2023-02-28T08:28:18;3.70;80.40
47546;DHT22;50104;52.002;4.688;2023-02-28T08:33:19;3.70;80.30
47546;DHT22;50104;52.002;4.688;2023-02-28T08:38:19;3.70;80.10
47546;DHT22;50104;52.002;4.688;2023-02-28T08:43:20;3.70;79.60
47546;DHT22;50104;52.002;4.688;2023-02-28T08:48:22;3.80;79.70
47546;DHT22;50104;52.002;4.688;2023-02-28T08:53:27;3.80;79.80
47546;DHT22;50104;52.002;4.688;2023-02-28T08:58:28;3.80;79.70
47546;DHT22;50104;52.002;4.688;2023-02-28T09:03:29;3.80;79.60
47546;DHT22;50104;52.002;4.688;2023-02-28T09:08:31;3.90;79.60
47546;DHT22;50104;52.002;4.688;2023-02-28T09:13:35;3.90;79.60
47546;DHT22;50104;52.002;4.688;2023-02-28T09:18:37;4.00;79.80
47546;DHT22;50104;52.002;4.688;2023-02-28T09:23:39;4.10;79.80
47546;DHT22;50104;52.002;4.688;2023-02-28T09:28:41;4.10;79.90
47546;DHT22;50104;52.002;4.688;2023-02-28T09:33:43;4.20;80.00
47546;DHT22;50104;52.002;4.688;2023-02-28T09:38:44;4.30;80.10
47546;DHT22;50104;52.002;4.688;2023-02-28T09:43:50;4.40;80.00
47546;DHT22;50104;52.002;4.688;2023-02-28T09:48:56;4.40;79.90
47546;DHT22;50104;52.002;4.688;2023-02-28T09:53:58;4.50;79.90
47546;DHT22;50104;52.002;4.688;2023-02-28T10:04:42;4.60;79.50
47546;DHT22;50104;52.002;4.688;2023-02-28T10:14:00;4.70;79.80
47546;DHT22;50104;52.002;4.688;2023-02-28T10:29:46;4.90;79.90
47546;DHT22;50104;52.002;4.688;2023-02-28T10:35:01;4.90;80.00
47546;DHT22;50104;52.002;4.688;2023-02-28T10:45:23;5.10;80.40
47546;DHT22;50104;52.002;4.688;2023-02-28T10:50:46;5.20;80.70
47546;DHT22;50104;52.002;4.688;2023-02-28T11:01:16;5.50;81.30
47546;DHT22;50104;52.002;4.688;2023-02-28T11:06:26;5.80;81.50
47546;DHT22;50104;52.002;4.688;2023-02-28T11:11:42;6.00;81.30
47546;DHT22;50104;52.002;4.688;2023-02-28T11:16:44;6.20;81.20
47546;DHT22;50104;52.002;4.688;2023-02-28T11:21:54;6.40;81.10
47546;DHT22;50104;52.002;4.688;2023-02-28T11:26:57;6.70;80.80
47546;DHT22;50104;52.002;4.688;2023-02-28T11:32:18;6.80;80.10
47546;DHT22;50104;52.002;4.688;2023-02-28T11:37:21;7.00;79.50
47546;DHT22;50104;52.002;4.688;2023-02-28T11:42:53;7.10;79.20
47546;DHT22;50104;52.002;4.688;2023-02-28T11:48:26;7.20;78.90
47546;DHT22;50104;52.002;4.688;2023-02-28T12:04:13;7.70;78.40
47546;DHT22;50104;52.002;4.688;2023-02-28T12:20:35;8.30;77.60
47546;DHT22;50104;52.002;4.688;2023-02-28T12:25:41;8.50;77.50
47546;DHT22;50104;52.002;4.688;2023-02-28T12:31:26;8.70;78.80
47546;DHT22;50104;52.002;4.688;2023-02-28T12:36:30;9.00;78.10
47546;DHT22;50104;52.002;4.688;2023-02-28T12:41:41;9.30;78.40
47546;DHT22;50104;52.002;4.688;2023-02-28T12:46:48;9.60;76.70
47546;DHT22;50104;52.002;4.688;2023-02-28T12:51:52;9.80;75.60
47546;DHT22;50104;52.002;4.688;2023-02-28T12:57:32;9.90;74.90
47546;DHT22;50104;52.002;4.688;2023-02-28T13:14:04;10.10;73.50
47546;DHT22;50104;52.002;4.688;2023-02-28T13:19:11;10.10;73.60
47546;DHT22;50104;52.002;4.688;2023-02-28T13:24:42;10.10;73.90
47546;DHT22;50104;52.002;4.688;2023-02-28T13:29:45;10.20;73.30
47546;DHT22;50104;52.002;4.688;2023-02-28T13:39:57;10.30;73.80
47546;DHT22;50104;52.002;4.688;2023-02-28T13:50:37;10.50;74.00
47546;DHT22;50104;52.002;4.688;2023-02-28T14:01:21;10.60;73.40
47546;DHT22;50104;52.002;4.688;2023-02-28T14:06:29;10.70;71.10
47546;DHT22;50104;52.002;4.688;2023-02-28T14:11:33;10.70;70.70
47546;DHT22;50104;52.002;4.688;2023-02-28T14:16:43;10.70;71.60
47546;DHT22;50104;52.002;4.688;2023-02-28T14:38:05;10.70;70.00
47546;DHT22;50104;52.002;4.688;2023-02-28T14:43:24;10.70;71.10
47546;DHT22;50104;52.002;4.688;2023-02-28T14:48:27;10.70;67.60
47546;DHT22;50104;52.002;4.688;2023-02-28T14:53:30;10.70;69.70
47546;DHT22;50104;52.002;4.688;2023-02-28T14:58:55;10.70;70.70
47546;DHT22;50104;52.002;4.688;2023-02-28T15:04:05;10.70;71.10
47546;DHT22;50104;52.002;4.688;2023-02-28T15:09:24;10.70;70.90
47546;DHT22;50104;52.002;4.688;2023-02-28T15:14:26;10.70;67.60
47546;DHT22;50104;52.002;4.688;2023-02-28T15:19:37;10.60;67.60
47546;DHT22;50104;52.002;4.688;2023-02-28T15:24:50;10.50;62.10
47546;DHT22;50104;52.002;4.688;2023-02-28T15:29:59;10.40;65.80
47546;DHT22;50104;52.002;4.688;2023-02-28T15:35:19;10.30;65.30
47546;DHT22;50104;52.002;4.688;2023-02-28T15:40:35;10.20;64.60
47546;DHT22;50104;52.002;4.688;2023-02-28T15:45:39;10.10;63.80
47546;DHT22;50104;52.002;4.688;2023-02-28T15:50:42;10.00;64.00
47546;DHT22;50104;52.002;4.688;2023-02-28T15:55:44;9.90;64.60
47546;DHT22;50104;52.002;4.688;2023-02-28T16:01:00;9.90;64.50
47546;DHT22;50104;52.002;4.688;2023-02-28T16:11:42;9.70;65.20
47546;DHT22;50104;52.002;4.688;2023-02-28T16:16:49;9.50;65.80
47546;DHT22;50104;52.002;4.688;2023-02-28T16:21:52;9.30;65.90
47546;DHT22;50104;52.002;4.688;2023-02-28T16:26:54;9.20;66.00
47546;DHT22;50104;52.002;4.688;2023-02-28T16:31:56;9.00;66.20
47546;DHT22;50104;52.002;4.688;2023-02-28T16:36:57;8.90;66.60
47546;DHT22;50104;52.002;4.688;2023-02-28T16:41:59;8.70;66.60
47546;DHT22;50104;52.002;4.688;2023-02-28T16:47:00;8.50;66.80
47546;DHT22;50104;52.002;4.688;2023-02-28T16:52:02;8.40;67.20
47546;DHT22;50104;52.002;4.688;2023-02-28T16:57:04;8.20;67.30
47546;DHT22;50104;52.002;4.688;2023-02-28T17:02:12;8.00;67.50
47546;DHT22;50104;52.002;4.688;2023-02-28T17:07:16;7.90;67.60
47546;DHT22;50104;52.002;4.688;2023-02-28T17:12:17;7.70;67.80
47546;DHT22;50104;52.002;4.688;2023-02-28T17:17:20;7.50;68.30
47546;DHT22;50104;52.002;4.688;2023-02-28T17:22:21;7.40;68.50
47546;DHT22;50104;52.002;4.688;2023-02-28T17:27:22;7.20;68.60
47546;DHT22;50104;52.002;4.688;2023-02-28T17:32:23;7.10;68.90
47546;DHT22;50104;52.002;4.688;2023-02-28T17:37:24;7.00;69.00
47546;DHT22;50104;52.002;4.688;2023-02-28T17:42:25;6.80;69.40
47546;DHT22;50104;52.002;4.688;2023-02-28T17:47:26;6.70;69.50
47546;DHT22;50104;52.002;4.688;2023-02-28T17:52:26;6.50;69.90
47546;DHT22;50104;52.002;4.688;2023-02-28T17:57:29;6.40;70.00
47546;DHT22;50104;52.002;4.688;2023-02-28T18:02:30;6.30;70.40
47546;DHT22;50104;52.002;4.688;2023-02-28T18:07:32;6.20;70.30
47546;DHT22;50104;52.002;4.688;2023-02-28T18:12:33;6.10;70.50
47546;DHT22;50104;52.002;4.688;2023-02-28T18:17:34;6.00;70.80
47546;DHT22;50104;52.002;4.688;2023-02-28T18:22:36;5.80;71.10
47546;DHT22;50104;52.002;4.688;2023-02-28T18:27:38;5.80;71.20
47546;DHT22;50104;52.002;4.688;2023-02-28T18:32:38;5.70;71.40
47546;DHT22;50104;52.002;4.688;2023-02-28T18:37:39;5.60;71.70
47546;DHT22;50104;52.002;4.688;2023-02-28T18:42:40;5.50;71.90
47546;DHT22;50104;52.002;4.688;2023-02-28T18:47:41;5.40;72.10
47546;DHT22;50104;52.002;4.688;2023-02-28T18:52:43;5.30;72.30
47546;DHT22;50104;52.002;4.688;2023-02-28T18:57:47;5.20;72.50
47546;DHT22;50104;52.002;4.688;2023-02-28T19:02:48;5.20;72.70
47546;DHT22;50104;52.002;4.688;2023-02-28T19:07:50;5.10;72.80
47546;DHT22;50104;52.002;4.688;2023-02-28T19:12:50;5.00;72.90
47546;DHT22;50104;52.002;4.688;2023-02-28T19:17:51;4.90;73.00
47546;DHT22;50104;52.002;4.688;2023-02-28T19:22:52;4.80;73.00
47546;DHT22;50104;52.002;4.688;2023-02-28T19:27:54;4.80;73.30
47546;DHT22;50104;52.002;4.688;2023-02-28T19:32:55;4.70;73.30
47546;DHT22;50104;52.002;4.688;2023-02-28T19:37:56;4.60;73.50
47546;DHT22;50104;52.002;4.688;2023-02-28T19:42:58;4.60;73.60
47546;DHT22;50104;52.002;4.688;2023-02-28T19:47:59;4.50;73.70
47546;DHT22;50104;52.002;4.688;2023-02-28T19:53:00;4.40;73.80
47546;DHT22;50104;52.002;4.688;2023-02-28T19:58:03;4.40;74.00
47546;DHT22;50104;52.002;4.688;2023-02-28T20:03:03;4.30;74.20
47546;DHT22;50104;52.002;4.688;2023-02-28T20:08:04;4.30;74.40
47546;DHT22;50104;52.002;4.688;2023-02-28T20:13:05;4.20;74.40
47546;DHT22;50104;52.002;4.688;2023-02-28T20:18:06;4.20;74.30
47546;DHT22;50104;52.002;4.688;2023-02-28T20:23:08;4.10;74.30
47546;DHT22;50104;52.002;4.688;2023-02-28T20:28:10;4.10;74.20
47546;DHT22;50104;52.002;4.688;2023-02-28T20:33:11;4.00;74.40
47546;DHT22;50104;52.002;4.688;2023-02-28T20:38:12;3.90;74.60
47546;DHT22;50104;52.002;4.688;2023-02-28T20:43:12;3.90;74.60
47546;DHT22;50104;52.002;4.688;2023-02-28T20:48:15;3.80;74.60
47546;DHT22;50104;52.002;4.688;2023-02-28T20:53:16;3.80;74.70
47546;DHT22;50104;52.002;4.688;2023-02-28T20:58:17;3.70;74.90
47546;DHT22;50104;52.002;4.688;2023-02-28T21:03:18;3.70;74.90
47546;DHT22;50104;52.002;4.688;2023-02-28T21:08:19;3.60;75.00
47546;DHT22;50104;52.002;4.688;2023-02-28T21:13:20;3.60;75.10
47546;DHT22;50104;52.002;4.688;2023-02-28T21:18:21;3.50;75.00
47546;DHT22;50104;52.002;4.688;2023-02-28T21:23:21;3.50;75.00
47546;DHT22;50104;52.002;4.688;2023-02-28T21:28:22;3.40;75.20
47546;DHT22;50104;52.002;4.688;2023-02-28T21:33:23;3.40;75.20
47546;DHT22;50104;52.002;4.688;2023-02-28T21:38:24;3.30;75.30
47546;DHT22;50104;52.002;4.688;2023-02-28T21:43:25;3.30;75.40
47546;DHT22;50104;52.002;4.688;2023-02-28T21:48:26;3.20;75.50
47546;DHT22;50104;52.002;4.688;2023-02-28T21:53:28;3.20;75.60
47546;DHT22;50104;52.002;4.688;2023-02-28T21:58:30;3.20;75.60
47546;DHT22;50104;52.002;4.688;2023-02-28T22:03:32;3.10;75.70
47546;DHT22;50104;52.002;4.688;2023-02-28T22:08:33;3.10;75.80
47546;DHT22;50104;52.002;4.688;2023-02-28T22:13:36;3.00;76.00
47546;DHT22;50104;52.002;4.688;2023-02-28T22:18:38;3.00;76.00
47546;DHT22;50104;52.002;4.688;2023-02-28T22:23:41;2.90;75.90
47546;DHT22;50104;52.002;4.688;2023-02-28T22:28:45;2.90;76.10
47546;DHT22;50104;52.002;4.688;2023-02-28T22:33:47;2.80;76.10
47546;DHT22;50104;52.002;4.688;2023-02-28T22:38:50;2.80;76.10
47546;DHT22;50104;52.002;4.688;2023-02-28T22:43:54;2.70;76.20
47546;DHT22;50104;52.002;4.688;2023-02-28T22:49:00;2.70;76.20
47546;DHT22;50104;52.002;4.688;2023-02-28T22:54:03;2.70;76.20
47546;DHT22;50104;52.002;4.688;2023-02-28T22:59:04;2.60;76.20
47546;DHT22;50104;52.002;4.688;2023-02-28T23:04:05;2.60;76.50
47546;DHT22;50104;52.002;4.688;2023-02-28T23:09:09;2.50;76.60
47546;DHT22;50104;52.002;4.688;2023-02-28T23:14:13;2.50;76.60
47546;DHT22;50104;52.002;4.688;2023-02-28T23:19:26;2.40;76.70
47546;DHT22;50104;52.002;4.688;2023-02-28T23:24:31;2.40;76.70
47546;DHT22;50104;52.002;4.688;2023-02-28T23:29:33;2.30;76.90
47546;DHT22;50104;52.002;4.688;2023-02-28T23:34:35;2.30;76.80
47546;DHT22;50104;52.002;4.688;2023-02-28T23:39:36;2.20;77.10
47546;DHT22;50104;52.002;4.688;2023-02-28T23:44:36;2.20;77.20
47546;DHT22;50104;52.002;4.688;2023-02-28T23:49:37;2.10;77.00
47546;DHT22;50104;52.002;4.688;2023-02-28T23:54:38;2.10;76.80
47546;DHT22;50104;52.002;4.688;2023-02-28T23:59:41;2.00;76.90
